Time;durP1;ratioP1;P1;durP2;ratioP2;P2;SDS_P1;SDS_P2;PMS_P1;PMS_P2;Temp;Humidity;BMP_temperature;BMP_pressure;BME280_temperature;BME280_humidity;BME280_pressure;Samples;Min_cycle;Max_cycle;Signal;HPM_P1;HPM_P2
2023/03/04 00:00:35;;;;;;;1.25;1.23;;;;;;;;;;5123246;28;20291;-72
2023/03/04 00:03:09;;;;;;;0.82;0.82;;;;;;;;;;5121788;28;20220;-73
2023/03/04 00:05:37;;;;;;;1.20;1.20;;;;;;;;;;5122676;28;20316;-72
2023/03/04 00:08:09;;;;;;;0.98;0.98;;;;;;;;;;5120925;28;20227;-72
2023/03/04 00:10:37;;;;;;;1.52;1.42;;;;;;;;;;5121026;28;20225;-72
2023/03/04 00:13:04;;;;;;;0.95;0.95;;;;;;;;;;5122171;28;20222;-71
2023/03/04 00:15:35;;;;;;;1.23;1.23;;;;;;;;;;5123028;28;20654;-71
2023/03/04 00:18:07;;;;;;;0.50;0.50;;;;;;;;;;5121926;28;20621;-72
2023/03/04 00:20:35;;;;;;;1.00;1.00;;;;;;;;;;5122700;28;20629;-72
2023/03/04 00:23:03;;;;;;;0.75;0.75;;;;;;;;;;5121785;28;20226;-73
2023/03/04 00:25:30;;;;;;;1.15;1.15;;;;;;;;;;5122160;28;20325;-72
2023/03/04 00:28:02;;;;;;;0.40;0.40;;;;;;;;;;5120390;28;20318;-73
2023/03/04 00:30:32;;;;;;;1.05;1.05;;;;;;;;;;5122721;28;20599;-72
2023/03/04 00:33:03;;;;;;;0.60;0.60;;;;;;;;;;5121363;28;20224;-72
2023/03/04 00:35:32;;;;;;;1.17;1.17;;;;;;;;;;5120811;28;20247;-72
2023/03/04 00:38:00;;;;;;;0.98;0.98;;;;;;;;;;5122660;28;20318;-72
2023/03/04 00:40:27;;;;;;;0.52;0.52;;;;;;;;;;5120646;28;20665;-73
2023/03/04 00:42:57;;;;;;;0.60;0.60;;;;;;;;;;5120264;28;21164;-72
2023/03/04 00:45:28;;;;;;;0.88;0.88;;;;;;;;;;5121181;28;20594;-72
2023/03/04 00:47:55;;;;;;;0.70;0.70;;;;;;;;;;5099863;28;20496;-72
2023/03/04 00:50:24;;;;;;;0.55;0.55;;;;;;;;;;5099516;28;20279;-71
2023/03/04 00:52:53;;;;;;;0.80;0.80;;;;;;;;;;5110866;28;20288;-71
2023/03/04 00:55:21;;;;;;;0.60;0.60;;;;;;;;;;5121096;28;20235;-73
2023/03/04 00:57:49;;;;;;;1.45;1.45;;;;;;;;;;5121171;28;20232;-73
2023/03/04 01:00:18;;;;;;;1.05;1.05;;;;;;;;;;5121464;28;20226;-72
2023/03/04 01:02:48;;;;;;;2.58;2.47;;;;;;;;;;5120830;28;20244;-73
2023/03/04 01:05:16;;;;;;;0.82;0.82;;;;;;;;;;5120955;28;20211;-72
2023/03/04 01:07:43;;;;;;;3.78;3.58;;;;;;;;;;5120808;28;20247;-72
2023/03/04 01:10:14;;;;;;;0.73;0.73;;;;;;;;;;5119919;28;20271;-72
2023/03/04 01:12:41;;;;;;;1.15;1.15;;;;;;;;;;5120731;28;20227;-72
2023/03/04 01:15:09;;;;;;;2.30;2.20;;;;;;;;;;5120171;28;20246;-72
2023/03/04 01:17:40;;;;;;;2.08;2.00;;;;;;;;;;5120024;28;20592;-72
2023/03/04 01:20:09;;;;;;;1.02;1.02;;;;;;;;;;5120310;28;20221;-72
2023/03/04 01:22:36;;;;;;;1.00;1.00;;;;;;;;;;5119644;28;20215;-71
2023/03/04 01:25:04;;;;;;;0.82;0.82;;;;;;;;;;5121747;28;20227;-72
2023/03/04 01:27:34;;;;;;;0.70;0.70;;;;;;;;;;5121293;28;20215;-72
2023/03/04 01:30:03;;;;;;;1.00;1.00;;;;;;;;;;5121439;28;20634;-72
2023/03/04 01:32:31;;;;;;;0.90;0.90;;;;;;;;;;5120590;28;20232;-72
2023/03/04 01:34:58;;;;;;;0.82;0.82;;;;;;;;;;5122001;28;20518;-72
2023/03/04 01:37:26;;;;;;;1.25;1.25;;;;;;;;;;5118963;28;20604;-72
2023/03/04 01:39:54;;;;;;;0.40;0.40;;;;;;;;;;5121236;28;20511;-72
2023/03/04 01:42:22;;;;;;;0.73;0.73;;;;;;;;;;5120924;28;20296;-72
2023/03/04 01:44:52;;;;;;;0.90;0.90;;;;;;;;;;5120733;28;20230;-71
2023/03/04 01:47:20;;;;;;;0.80;0.80;;;;;;;;;;5121148;28;20250;-72
2023/03/04 01:49:50;;;;;;;0.88;0.88;;;;;;;;;;5121719;28;20222;-73
2023/03/04 01:52:18;;;;;;;0.50;0.50;;;;;;;;;;5120484;28;20223;-72
2023/03/04 01:54:46;;;;;;;0.40;0.40;;;;;;;;;;5120884;28;20625;-72
2023/03/04 01:57:18;;;;;;;0.80;0.80;;;;;;;;;;5120544;28;20219;-72
2023/03/04 01:59:45;;;;;;;0.60;0.60;;;;;;;;;;5120271;28;20522;-72
2023/03/04 02:02:15;;;;;;;0.70;0.70;;;;;;;;;;5120807;28;20287;-72
2023/03/04 02:04:43;;;;;;;0.60;0.60;;;;;;;;;;5119694;28;20281;-72
2023/03/04 02:07:11;;;;;;;0.60;0.60;;;;;;;;;;5122117;28;20267;-72
2023/03/04 02:09:39;;;;;;;0.82;0.82;;;;;;;;;;5112075;28;20224;-72
2023/03/04 02:12:07;;;;;;;1.23;1.23;;;;;;;;;;5099029;28;20235;-72
2023/03/04 02:14:37;;;;;;;0.73;0.73;;;;;;;;;;5100091;28;20216;-72
2023/03/04 02:17:07;;;;;;;0.40;0.40;;;;;;;;;;5099974;28;20233;-72
2023/03/04 02:19:43;;;;;;;1.05;1.05;;;;;;;;;;5101065;28;20677;-72
2023/03/04 02:22:10;;;;;;;0.55;0.55;;;;;;;;;;5101744;28;20266;-72
2023/03/04 02:24:44;;;;;;;0.70;0.70;;;;;;;;;;5115142;28;20219;-72
2023/03/04 02:27:13;;;;;;;0.50;0.50;;;;;;;;;;5122328;28;20219;-72
2023/03/04 02:29:41;;;;;;;1.25;1.25;;;;;;;;;;5119960;28;20234;-72
2023/03/04 02:32:11;;;;;;;1.02;1.02;;;;;;;;;;5120780;28;20222;-72
2023/03/04 02:34:48;;;;;;;1.15;1.15;;;;;;;;;;5116043;28;20226;-74
2023/03/04 02:37:16;;;;;;;0.50;0.50;;;;;;;;;;5098878;28;20321;-72
2023/03/04 02:39:44;;;;;;;0.55;0.55;;;;;;;;;;5097640;28;20237;-72
2023/03/04 02:42:13;;;;;;;0.95;0.95;;;;;;;;;;5098469;28;20702;-72
2023/03/04 02:44:42;;;;;;;1.15;1.15;;;;;;;;;;5098300;28;20586;-72
2023/03/04 02:47:11;;;;;;;1.95;1.85;;;;;;;;;;5098685;28;20224;-72
2023/03/04 02:49:48;;;;;;;0.82;0.82;;;;;;;;;;5099248;28;20556;-72
2023/03/04 02:52:20;;;;;;;0.47;0.47;;;;;;;;;;5098035;28;20227;-71
2023/03/04 02:54:48;;;;;;;0.73;0.73;;;;;;;;;;5114246;28;20318;-72
2023/03/04 02:57:18;;;;;;;0.73;0.73;;;;;;;;;;5117312;28;20668;-71
2023/03/04 02:59:45;;;;;;;0.43;0.43;;;;;;;;;;5118238;28;20701;-72
2023/03/04 03:02:13;;;;;;;0.50;0.50;;;;;;;;;;5118163;28;20315;-71
2023/03/04 03:04:41;;;;;;;1.08;1.08;;;;;;;;;;5118339;28;20311;-71
2023/03/04 03:07:09;;;;;;;0.70;0.70;;;;;;;;;;5118887;28;20212;-71
2023/03/04 03:09:37;;;;;;;0.70;0.70;;;;;;;;;;5118506;28;20603;-72
2023/03/04 03:12:05;;;;;;;0.55;0.55;;;;;;;;;;5118031;28;20230;-72
2023/03/04 03:14:34;;;;;;;0.75;0.75;;;;;;;;;;5118452;28;20538;-72
2023/03/04 03:17:02;;;;;;;0.98;0.98;;;;;;;;;;5110517;28;20292;-72
2023/03/04 03:19:30;;;;;;;0.93;0.93;;;;;;;;;;5104899;28;20212;-72
2023/03/04 03:21:59;;;;;;;0.88;0.88;;;;;;;;;;5117839;28;20512;-72
2023/03/04 03:24:29;;;;;;;0.93;0.93;;;;;;;;;;5119275;28;20233;-72
2023/03/04 03:26:57;;;;;;;0.70;0.70;;;;;;;;;;5118359;28;20233;-72
2023/03/04 03:29:26;;;;;;;0.90;0.90;;;;;;;;;;5118491;28;20220;-72
2023/03/04 03:31:56;;;;;;;0.60;0.60;;;;;;;;;;5118382;28;20318;-72
2023/03/04 03:34:24;;;;;;;0.80;0.80;;;;;;;;;;5119316;28;20645;-72
2023/03/04 03:36:55;;;;;;;1.15;1.15;;;;;;;;;;5119923;28;20239;-72
2023/03/04 03:39:23;;;;;;;0.68;0.68;;;;;;;;;;5118182;28;20237;-72
2023/03/04 03:41:51;;;;;;;1.63;1.52;;;;;;;;;;5118635;28;20497;-71
2023/03/04 03:44:24;;;;;;;0.50;0.50;;;;;;;;;;5118191;28;20251;-71
2023/03/04 03:46:57;;;;;;;0.63;0.63;;;;;;;;;;5118855;28;20224;-73
2023/03/04 03:49:24;;;;;;;0.50;0.50;;;;;;;;;;5117690;28;20225;-72
2023/03/04 03:51:54;;;;;;;0.68;0.68;;;;;;;;;;5118420;28;20226;-73
2023/03/04 03:54:26;;;;;;;1.42;1.42;;;;;;;;;;5116874;28;20231;-72
2023/03/04 03:56:54;;;;;;;0.70;0.70;;;;;;;;;;5118614;28;20240;-72
2023/03/04 03:59:22;;;;;;;0.50;0.50;;;;;;;;;;5119534;28;20588;-72
2023/03/04 04:01:50;;;;;;;1.05;1.05;;;;;;;;;;5122072;28;20230;-72
2023/03/04 04:04:28;;;;;;;0.52;0.52;;;;;;;;;;5122502;28;20223;-72
2023/03/04 04:06:55;;;;;;;0.60;0.60;;;;;;;;;;5121837;28;20211;-71
2023/03/04 04:09:26;;;;;;;0.70;0.70;;;;;;;;;;5122497;28;20220;-71
2023/03/04 04:11:54;;;;;;;0.90;0.90;;;;;;;;;;5121870;28;20308;-72
2023/03/04 04:14:22;;;;;;;1.10;1.10;;;;;;;;;;5122502;28;20227;-73
2023/03/04 04:16:50;;;;;;;1.35;1.35;;;;;;;;;;5121439;28;20239;-72
2023/03/04 04:19:18;;;;;;;0.93;0.93;;;;;;;;;;5122006;28;20474;-72
2023/03/04 04:21:48;;;;;;;0.40;0.40;;;;;;;;;;5121160;28;20672;-72
2023/03/04 04:24:16;;;;;;;0.60;0.60;;;;;;;;;;5120758;28;20584;-73
2023/03/04 04:26:44;;;;;;;0.60;0.60;;;;;;;;;;5121115;27;20230;-71
2023/03/04 04:29:14;;;;;;;0.70;0.70;;;;;;;;;;5121252;28;20612;-72
2023/03/04 04:31:42;;;;;;;0.90;0.90;;;;;;;;;;5120859;28;20212;-72
2023/03/04 04:34:10;;;;;;;1.00;1.00;;;;;;;;;;5120698;28;20237;-73
2023/03/04 04:36:37;;;;;;;0.63;0.63;;;;;;;;;;5121579;28;20250;-72
2023/03/04 04:39:07;;;;;;;0.60;0.60;;;;;;;;;;5120589;27;20248;-72
2023/03/04 04:41:37;;;;;;;1.02;1.02;;;;;;;;;;5122087;28;20585;-71
2023/03/04 04:44:04;;;;;;;0.60;0.60;;;;;;;;;;5121336;28;20234;-71
2023/03/04 04:46:32;;;;;;;0.95;0.95;;;;;;;;;;5122311;28;20235;-72
2023/03/04 04:49:04;;;;;;;0.57;0.57;;;;;;;;;;5122000;28;20344;-72
2023/03/04 04:51:32;;;;;;;0.82;0.82;;;;;;;;;;5122774;28;20557;-72
2023/03/04 04:54:04;;;;;;;1.00;1.00;;;;;;;;;;5121836;28;20284;-71
2023/03/04 04:56:34;;;;;;;1.15;1.15;;;;;;;;;;5122075;28;20250;-72
2023/03/04 04:59:08;;;;;;;1.20;1.20;;;;;;;;;;5121100;28;20622;-72
2023/03/04 05:01:37;;;;;;;1.70;1.70;;;;;;;;;;5121840;28;20227;-71
2023/03/04 05:04:05;;;;;;;0.85;0.85;;;;;;;;;;5121791;28;20665;-71
2023/03/04 05:06:33;;;;;;;0.75;0.75;;;;;;;;;;5120586;28;20208;-71
2023/03/04 05:09:01;;;;;;;0.75;0.75;;;;;;;;;;5122075;28;20245;-71
2023/03/04 05:11:34;;;;;;;0.43;0.43;;;;;;;;;;5120820;28;20326;-72
2023/03/04 05:14:02;;;;;;;1.90;1.80;;;;;;;;;;5121316;28;20227;-72
2023/03/04 05:16:33;;;;;;;1.15;1.15;;;;;;;;;;5120949;28;20737;-72
2023/03/04 05:19:00;;;;;;;0.40;0.40;;;;;;;;;;5120140;28;20232;-72
2023/03/04 05:21:29;;;;;;;0.40;0.40;;;;;;;;;;5120529;28;20608;-72
2023/03/04 05:23:57;;;;;;;0.40;0.40;;;;;;;;;;5120660;28;20280;-72
2023/03/04 05:26:25;;;;;;;0.88;0.88;;;;;;;;;;5120970;27;20301;-72
2023/03/04 05:28:55;;;;;;;0.50;0.50;;;;;;;;;;5120066;28;20575;-72
2023/03/04 05:31:23;;;;;;;0.63;0.63;;;;;;;;;;5121017;27;20224;-72
2023/03/04 05:33:50;;;;;;;0.98;0.98;;;;;;;;;;5119926;28;20223;-71
2023/03/04 05:36:18;;;;;;;0.70;0.70;;;;;;;;;;5120473;28;20264;-72
2023/03/04 05:38:46;;;;;;;1.02;1.02;;;;;;;;;;5121024;28;20219;-71
2023/03/04 05:41:21;;;;;;;0.50;0.50;;;;;;;;;;5119801;28;20272;-72
2023/03/04 05:43:49;;;;;;;0.47;0.47;;;;;;;;;;5121553;28;20219;-72
2023/03/04 05:46:24;;;;;;;0.70;0.70;;;;;;;;;;5120606;28;20215;-72
2023/03/04 05:48:52;;;;;;;0.60;0.60;;;;;;;;;;5122431;28;20283;-72
2023/03/04 05:51:23;;;;;;;0.60;0.60;;;;;;;;;;5120554;28;20286;-73
2023/03/04 05:53:51;;;;;;;0.50;0.50;;;;;;;;;;5120311;28;20288;-72
2023/03/04 05:56:20;;;;;;;1.05;1.05;;;;;;;;;;5120095;28;20632;-72
2023/03/04 05:58:48;;;;;;;0.60;0.60;;;;;;;;;;5118904;28;20222;-72
2023/03/04 06:01:19;;;;;;;0.50;0.50;;;;;;;;;;5118896;28;20215;-73
2023/03/04 06:03:55;;;;;;;1.40;1.40;;;;;;;;;;5119412;28;20225;-73
2023/03/04 06:06:22;;;;;;;0.60;0.60;;;;;;;;;;5119160;28;20222;-72
2023/03/04 06:08:50;;;;;;;0.80;0.80;;;;;;;;;;5118247;28;20301;-73
2023/03/04 06:11:21;;;;;;;1.02;1.02;;;;;;;;;;5117594;28;20319;-72
2023/03/04 06:13:49;;;;;;;0.70;0.70;;;;;;;;;;5118645;28;20416;-72
2023/03/04 06:16:19;;;;;;;1.13;1.13;;;;;;;;;;5117764;28;20612;-72
2023/03/04 06:18:47;;;;;;;0.73;0.73;;;;;;;;;;5114915;28;20225;-72
2023/03/04 06:21:16;;;;;;;1.00;1.00;;;;;;;;;;5097699;28;20491;-72
2023/03/04 06:23:51;;;;;;;0.50;0.50;;;;;;;;;;5098614;28;20588;-73
2023/03/04 06:26:18;;;;;;;0.80;0.80;;;;;;;;;;5098989;28;20225;-72
2023/03/04 06:28:46;;;;;;;0.70;0.70;;;;;;;;;;5098225;28;20628;-72
2023/03/04 06:31:14;;;;;;;1.50;1.45;;;;;;;;;;5097061;28;20232;-73
2023/03/04 06:33:41;;;;;;;1.00;1.00;;;;;;;;;;5100046;28;20631;-72
2023/03/04 06:36:12;;;;;;;0.60;0.60;;;;;;;;;;5117784;28;20236;-72
2023/03/04 06:38:43;;;;;;;1.00;1.00;;;;;;;;;;5118201;28;20519;-72
2023/03/04 06:41:16;;;;;;;1.15;1.15;;;;;;;;;;5117594;28;20215;-72
2023/03/04 06:43:44;;;;;;;1.15;1.15;;;;;;;;;;5120869;28;20288;-72
2023/03/04 06:46:14;;;;;;;1.05;1.05;;;;;;;;;;5119045;28;20311;-71
2023/03/04 06:48:48;;;;;;;0.98;0.98;;;;;;;;;;5122303;28;20226;-71
2023/03/04 06:51:16;;;;;;;1.40;1.40;;;;;;;;;;5119305;28;20216;-71
2023/03/04 06:53:57;;;;;;;0.98;0.98;;;;;;;;;;5121902;28;20506;-72
2023/03/04 06:56:48;;;;;;;0.75;0.75;;;;;;;;;;5119587;28;20634;-70
2023/03/04 06:59:30;;;;;;;1.70;1.67;;;;;;;;;;5120393;28;20332;-71
2023/03/04 07:01:59;;;;;;;1.17;1.17;;;;;;;;;;5113079;28;20212;-72
2023/03/04 07:04:28;;;;;;;0.95;0.95;;;;;;;;;;5116107;28;20595;-72
2023/03/04 07:06:55;;;;;;;1.08;1.08;;;;;;;;;;5120831;28;20228;-72
2023/03/04 07:09:25;;;;;;;1.17;1.17;;;;;;;;;;5110161;28;20218;-71
2023/03/04 07:12:00;;;;;;;0.65;0.65;;;;;;;;;;5100198;28;20236;-71
2023/03/04 07:14:34;;;;;;;1.67;1.67;;;;;;;;;;5099223;28;20238;-71
2023/03/04 07:17:02;;;;;;;0.95;0.95;;;;;;;;;;5098948;28;20251;-72
2023/03/04 07:19:30;;;;;;;0.88;0.88;;;;;;;;;;5098551;28;20522;-72
2023/03/04 07:21:57;;;;;;;1.30;1.30;;;;;;;;;;5109881;28;20212;-71
2023/03/04 07:24:27;;;;;;;0.95;0.95;;;;;;;;;;5119502;28;20514;-71
2023/03/04 07:26:56;;;;;;;1.05;1.05;;;;;;;;;;5118672;28;20218;-72
2023/03/04 07:29:24;;;;;;;1.10;1.10;;;;;;;;;;5119857;28;20249;-72
2023/03/04 07:31:55;;;;;;;0.88;0.88;;;;;;;;;;5119059;28;20247;-70
2023/03/04 07:34:26;;;;;;;1.83;1.80;;;;;;;;;;5120524;28;20224;-72
2023/03/04 07:37:05;;;;;;;1.17;1.17;;;;;;;;;;5123295;28;20243;-72
2023/03/04 07:39:34;;;;;;;9.05;3.10;;;;;;;;;;5122875;28;20229;-72
2023/03/04 07:42:04;;;;;;;11.93;3.70;;;;;;;;;;5122443;28;20561;-72
2023/03/04 07:44:32;;;;;;;12.00;2.57;;;;;;;;;;5120919;28;20542;-71
2023/03/04 07:47:04;;;;;;;12.03;4.47;;;;;;;;;;5123373;28;21068;-72
2023/03/04 07:49:31;;;;;;;11.10;2.60;;;;;;;;;;5119977;28;20461;-71
2023/03/04 07:51:59;;;;;;;9.80;3.70;;;;;;;;;;5113870;28;20450;-71
2023/03/04 07:54:27;;;;;;;6.17;2.40;;;;;;;;;;5121162;28;20457;-72
2023/03/04 07:56:56;;;;;;;6.17;2.60;;;;;;;;;;5110060;28;20483;-74
2023/03/04 07:59:26;;;;;;;8.33;2.00;;;;;;;;;;5106580;28;20514;-72
2023/03/04 08:01:54;;;;;;;4.20;1.63;;;;;;;;;;5120513;28;20485;-72
2023/03/04 08:04:22;;;;;;;5.07;1.60;;;;;;;;;;5123162;28;20895;-72
2023/03/04 08:06:50;;;;;;;3.87;1.60;;;;;;;;;;5121484;28;20462;-72
2023/03/04 08:09:30;;;;;;;6.23;1.70;;;;;;;;;;5121547;27;20765;-72
2023/03/04 08:11:59;;;;;;;9.23;3.00;;;;;;;;;;5120540;28;20450;-72
2023/03/04 08:14:29;;;;;;;7.17;2.63;;;;;;;;;;5100422;28;20439;-72
2023/03/04 08:16:57;;;;;;;7.70;2.50;;;;;;;;;;5101362;28;20940;-71
2023/03/04 08:19:25;;;;;;;4.80;1.97;;;;;;;;;;5100720;28;20527;-71
2023/03/04 08:21:53;;;;;;;11.30;1.93;;;;;;;;;;5101415;28;20474;-71
2023/03/04 08:24:21;;;;;;;7.87;1.90;;;;;;;;;;5102841;28;20447;-72
2023/03/04 08:26:49;;;;;;;5.20;2.67;;;;;;;;;;5099273;28;20452;-72
2023/03/04 08:29:21;;;;;;;7.80;2.57;;;;;;;;;;5114820;28;20720;-72
2023/03/04 08:31:49;;;;;;;9.63;1.87;;;;;;;;;;5104075;28;20459;-71
2023/03/04 08:34:24;;;;;;;5.50;2.00;;;;;;;;;;5105842;28;20458;-72
2023/03/04 08:36:53;;;;;;;8.67;2.83;;;;;;;;;;5121044;28;20483;-70
2023/03/04 08:39:20;;;;;;;14.50;2.97;;;;;;;;;;5123698;28;20450;-72
2023/03/04 08:41:49;;;;;;;8.10;2.67;;;;;;;;;;5121801;28;20449;-72
2023/03/04 08:44:21;;;;;;;7.50;2.40;;;;;;;;;;5123481;28;20937;-71
2023/03/04 08:52:40;;;;;;;11.73;3.20;;;;;;;;;;5103086;28;20432;-72
2023/03/04 08:55:19;;;;;;;13.73;2.73;;;;;;;;;;5102123;28;20471;-72
2023/03/04 08:57:51;;;;;;;13.17;3.10;;;;;;;;;;5100426;28;20936;-72
2023/03/04 09:00:37;;;;;;;19.73;3.70;;;;;;;;;;5111604;28;21155;-71
2023/03/04 09:03:06;;;;;;;7.07;2.70;;;;;;;;;;5120600;28;20442;-71
2023/03/04 09:05:41;;;;;;;12.50;2.63;;;;;;;;;;5120566;28;20439;-71
2023/03/04 09:08:10;;;;;;;10.37;2.40;;;;;;;;;;5106614;28;20463;-70
2023/03/04 09:10:38;;;;;;;10.10;2.50;;;;;;;;;;5102249;28;20459;-70
2023/03/04 09:13:10;;;;;;;13.40;2.87;;;;;;;;;;5100235;28;20451;-71
2023/03/04 09:15:40;;;;;;;16.40;2.77;;;;;;;;;;5101209;28;20490;-70
2023/03/04 09:18:18;;;;;;;14.00;2.47;;;;;;;;;;5100352;28;21062;-71
2023/03/04 09:20:47;;;;;;;12.30;2.90;;;;;;;;;;5100678;28;20444;-71
2023/03/04 09:23:14;;;;;;;13.90;2.37;;;;;;;;;;5106112;28;20871;-69
2023/03/04 09:25:48;;;;;;;19.77;5.17;;;;;;;;;;5121723;28;20447;-72
2023/03/04 09:28:19;;;;;;;16.03;3.23;;;;;;;;;;5118334;28;20860;-70
2023/03/04 09:30:51;;;;;;;5.70;1.83;;;;;;;;;;5122714;28;20443;-70
2023/03/04 09:33:26;;;;;;;8.33;2.63;;;;;;;;;;5119898;28;20454;-70
2023/03/04 09:35:54;;;;;;;6.13;1.43;;;;;;;;;;5109221;28;20443;-70
2023/03/04 09:38:23;;;;;;;15.40;2.80;;;;;;;;;;5111713;28;20490;-70
2023/03/04 09:40:51;;;;;;;10.00;3.43;;;;;;;;;;5120106;28;20454;-70
2023/03/04 09:43:21;;;;;;;9.70;3.23;;;;;;;;;;5114817;28;20463;-70
2023/03/04 09:45:53;;;;;;;17.50;3.60;;;;;;;;;;5103993;28;20450;-71
2023/03/04 09:48:23;;;;;;;7.43;3.70;;;;;;;;;;5119393;28;20810;-69
2023/03/04 09:51:03;;;;;;;13.20;3.20;;;;;;;;;;5120497;28;20466;-71
2023/03/04 09:53:38;;;;;;;10.03;3.73;;;;;;;;;;5119802;28;20473;-71
2023/03/04 09:56:09;;;;;;;18.40;2.50;;;;;;;;;;5121992;28;20442;-71
2023/03/04 09:58:58;;;;;;;10.20;2.50;;;;;;;;;;5119064;28;20474;-70
2023/03/04 10:01:35;;;;;;;12.47;3.50;;;;;;;;;;5120622;28;20484;-71
2023/03/04 10:04:16;;;;;;;7.40;1.93;;;;;;;;;;5120956;28;20439;-71
2023/03/04 10:06:53;;;;;;;16.87;4.53;;;;;;;;;;5119241;28;20886;-71
2023/03/04 10:09:48;;;;;;;11.83;3.60;;;;;;;;;;5102787;28;20441;-71
2023/03/04 10:12:29;;;;;;;7.33;2.37;;;;;;;;;;5108016;28;20521;-73
2023/03/04 10:15:21;;;;;;;6.37;1.40;;;;;;;;;;5109777;28;20499;-71
2023/03/04 10:18:04;;;;;;;12.23;2.83;;;;;;;;;;5110886;28;20566;-71
2023/03/04 10:20:39;;;;;;;8.80;2.17;;;;;;;;;;5121232;27;20960;-70
2023/03/04 10:23:11;;;;;;;9.30;2.83;;;;;;;;;;5119087;28;20461;-72
2023/03/04 10:25:52;;;;;;;12.40;2.27;;;;;;;;;;5118378;28;20478;-73
2023/03/04 10:28:34;;;;;;;25.10;3.13;;;;;;;;;;5100991;28;20460;-70
2023/03/04 10:31:22;;;;;;;9.23;2.30;;;;;;;;;;5119921;28;20478;-70
2023/03/04 10:33:59;;;;;;;10.70;2.20;;;;;;;;;;5120116;28;20447;-70
2023/03/04 10:36:41;;;;;;;18.37;2.77;;;;;;;;;;5113852;28;21000;-70
2023/03/04 10:39:14;;;;;;;15.93;3.30;;;;;;;;;;5119527;28;20812;-71
2023/03/04 10:41:50;;;;;;;8.77;2.47;;;;;;;;;;5109964;28;20501;-71
2023/03/04 10:44:18;;;;;;;10.03;2.87;;;;;;;;;;5118025;28;20542;-71
2023/03/04 10:47:13;;;;;;;13.33;3.70;;;;;;;;;;5119773;28;20488;-70
2023/03/04 10:52:54;;;;;;;11.57;3.50;;;;;;;;;;5120375;28;20487;-71
2023/03/04 10:55:31;;;;;;;12.57;3.03;;;;;;;;;;5105481;28;20569;-70
2023/03/04 10:58:10;;;;;;;18.90;3.60;;;;;;;;;;5113839;28;20492;-71
2023/03/04 11:00:39;;;;;;;13.27;3.50;;;;;;;;;;5101013;28;20490;-71
2023/03/04 11:03:24;;;;;;;8.70;2.43;;;;;;;;;;5118032;28;20783;-71
2023/03/04 11:05:58;;;;;;;7.80;1.93;;;;;;;;;;5119224;28;20455;-71
2023/03/04 11:08:50;;;;;;;9.33;1.90;;;;;;;;;;5118100;28;20572;-71
2023/03/04 11:11:33;;;;;;;11.87;2.37;;;;;;;;;;5103626;28;20463;-71
2023/03/04 11:14:29;;;;;;;7.57;4.03;;;;;;;;;;5108300;28;20734;-71
2023/03/04 11:23:16;;;;;;;10.20;2.63;;;;;;;;;;5122747;28;20458;-71
2023/03/04 11:25:53;;;;;;;10.10;3.27;;;;;;;;;;5102785;28;20431;-71
2023/03/04 11:28:43;;;;;;;11.60;3.00;;;;;;;;;;5122007;28;20443;-71
2023/03/04 11:31:17;;;;;;;15.40;2.47;;;;;;;;;;5104294;28;20468;-71
2023/03/04 11:33:53;;;;;;;14.90;4.67;;;;;;;;;;5120841;28;20750;-71
2023/03/04 11:36:45;;;;;;;15.13;3.10;;;;;;;;;;5119956;28;20854;-70
2023/03/04 11:39:26;;;;;;;19.60;4.13;;;;;;;;;;5103737;28;20491;-70
2023/03/04 11:42:22;;;;;;;14.03;2.40;;;;;;;;;;5103533;28;20454;-71
2023/03/04 11:45:12;;;;;;;12.73;3.03;;;;;;;;;;5103950;28;20804;-72
2023/03/04 11:48:07;;;;;;;17.87;2.77;;;;;;;;;;5110564;28;20541;-71
2023/03/04 11:50:40;;;;;;;20.70;3.63;;;;;;;;;;5122527;28;20590;-71
2023/03/04 11:53:25;;;;;;;9.27;3.07;;;;;;;;;;5121944;28;20469;-71
2023/03/04 11:58:59;;;;;;;15.90;3.57;;;;;;;;;;5108696;28;20723;-70
2023/03/04 12:01:30;;;;;;;12.63;2.43;;;;;;;;;;5068815;28;20818;-72
2023/03/04 12:04:16;;;;;;;16.17;2.90;;;;;;;;;;5103570;28;20451;-71
2023/03/04 12:06:50;;;;;;;12.53;3.10;;;;;;;;;;5122541;28;20553;-73
2023/03/04 12:09:37;;;;;;;14.57;3.73;;;;;;;;;;5124035;28;20822;-72
2023/03/04 12:12:14;;;;;;;23.23;4.50;;;;;;;;;;5123148;28;20441;-71
2023/03/04 12:14:45;;;;;;;14.27;3.07;;;;;;;;;;5122573;28;20886;-71
2023/03/04 12:17:22;;;;;;;11.13;3.27;;;;;;;;;;5123079;28;20539;-72
2023/03/04 12:20:13;;;;;;;7.80;2.47;;;;;;;;;;5103324;28;21065;-72
2023/03/04 12:22:46;;;;;;;8.47;3.23;;;;;;;;;;5109580;28;20730;-71
2023/03/04 12:25:49;;;;;;;19.30;2.70;;;;;;;;;;5100666;28;20534;-71
2023/03/04 12:28:37;;;;;;;14.83;3.50;;;;;;;;;;5093723;28;20451;-72
2023/03/04 12:31:14;;;;;;;17.60;3.70;;;;;;;;;;5101350;28;20465;-73
2023/03/04 12:33:47;;;;;;;10.33;3.20;;;;;;;;;;5112773;28;20519;-72
2023/03/04 12:36:25;;;;;;;7.10;2.10;;;;;;;;;;5115962;28;20453;-71
2023/03/04 12:39:08;;;;;;;15.27;4.50;;;;;;;;;;5121676;28;20482;-72
2023/03/04 12:41:45;;;;;;;7.23;3.23;;;;;;;;;;5109019;28;20460;-72
2023/03/04 12:44:21;;;;;;;9.37;2.70;;;;;;;;;;5109974;28;21133;-73
2023/03/04 12:47:13;;;;;;;11.37;3.10;;;;;;;;;;5106963;28;20526;-72
2023/03/04 12:49:57;;;;;;;7.63;3.27;;;;;;;;;;5117660;28;20451;-72
2023/03/04 12:52:53;;;;;;;11.73;4.40;;;;;;;;;;5114410;28;20474;-72
2023/03/04 12:55:40;;;;;;;16.87;3.50;;;;;;;;;;5090033;28;20577;-71
2023/03/04 12:58:39;;;;;;;7.07;2.80;;;;;;;;;;5100244;28;20490;-72
2023/03/04 13:01:26;;;;;;;7.80;2.80;;;;;;;;;;5099728;28;20455;-72
2023/03/04 13:03:59;;;;;;;20.00;3.23;;;;;;;;;;5102499;28;20451;-71
2023/03/04 13:06:32;;;;;;;9.73;3.43;;;;;;;;;;5120615;28;20489;-71
2023/03/04 13:09:06;;;;;;;13.73;3.20;;;;;;;;;;5119389;28;20542;-72
2023/03/04 13:11:52;;;;;;;18.73;4.00;;;;;;;;;;5100565;28;20479;-72
2023/03/04 13:14:28;;;;;;;8.70;2.20;;;;;;;;;;5116397;28;20454;-73
2023/03/04 13:17:00;;;;;;;9.97;2.93;;;;;;;;;;5119227;28;20892;-72
2023/03/04 13:19:46;;;;;;;8.30;1.90;;;;;;;;;;5119951;28;20543;-72
2023/03/04 13:22:35;;;;;;;10.43;1.70;;;;;;;;;;5120300;28;20458;-72
2023/03/04 13:25:25;;;;;;;16.40;3.43;;;;;;;;;;5111738;28;20504;-73
2023/03/04 13:28:20;;;;;;;9.77;3.40;;;;;;;;;;5113613;28;20442;-72
2023/03/04 13:31:07;;;;;;;10.03;1.83;;;;;;;;;;5119314;28;20457;-73
2023/03/04 13:34:05;;;;;;;12.67;2.53;;;;;;;;;;5117143;28;20561;-72
2023/03/04 13:39:38;;;;;;;8.90;2.33;;;;;;;;;;5118970;28;20627;-73
2023/03/04 13:42:22;;;;;;;2.53;1.20;;;;;;;;;;5119621;28;20846;-71
2023/03/04 13:45:14;;;;;;;7.03;3.03;;;;;;;;;;5105986;28;20448;-72
2023/03/04 13:48:00;;;;;;;6.97;2.40;;;;;;;;;;5106716;28;20891;-73
2023/03/04 13:50:57;;;;;;;8.93;3.03;;;;;;;;;;5099243;28;20462;-71
2023/03/04 13:53:55;;;;;;;10.50;2.23;;;;;;;;;;5097835;28;20565;-72
2023/03/04 13:56:52;;;;;;;9.83;2.40;;;;;;;;;;5111298;28;20493;-73
2023/03/04 13:59:43;;;;;;;12.27;2.77;;;;;;;;;;5117364;28;20486;-72
2023/03/04 14:02:15;;;;;;;10.33;2.83;;;;;;;;;;5117432;28;20652;-72
2023/03/04 14:04:46;;;;;;;6.10;1.80;;;;;;;;;;5117440;28;20905;-73
2023/03/04 14:07:23;;;;;;;4.20;1.60;;;;;;;;;;5117187;28;20443;-72
2023/03/04 14:09:55;;;;;;;8.40;1.83;;;;;;;;;;5112705;28;20464;-72
2023/03/04 14:15:26;;;;;;;4.60;1.97;;;;;;;;;;5116826;28;20715;-73
2023/03/04 14:21:11;;;;;;;7.57;3.20;;;;;;;;;;5096917;28;20440;-70
2023/03/04 14:23:52;;;;;;;9.73;2.27;;;;;;;;;;5095842;28;20459;-72
2023/03/04 14:26:20;;;;;;;9.73;1.90;;;;;;;;;;5114842;28;20445;-71
2023/03/04 14:28:56;;;;;;;10.73;3.40;;;;;;;;;;5117769;28;20443;-72
2023/03/04 14:31:43;;;;;;;12.17;2.97;;;;;;;;;;5110597;28;20461;-72
2023/03/04 14:34:19;;;;;;;10.87;2.83;;;;;;;;;;5117437;28;20667;-70
2023/03/04 14:40:22;;;;;;;18.33;2.50;;;;;;;;;;5033284;28;20479;-72
2023/03/04 14:45:55;;;;;;;10.07;2.97;;;;;;;;;;5041840;28;20496;-72
2023/03/04 14:48:35;;;;;;;18.50;2.90;;;;;;;;;;5054817;28;20445;-71
2023/03/04 14:54:23;;;;;;;9.70;3.07;;;;;;;;;;5091440;28;20456;-72
2023/03/04 14:57:47;;;;;;;21.43;1.90;;;;;;;;;;5098311;28;20458;-73
2023/03/04 15:00:46;;;;;;;10.20;3.97;;;;;;;;;;5100196;28;20483;-72
2023/03/04 15:06:19;;;;;;;10.13;2.70;;;;;;;;;;5092272;28;20545;-71
2023/03/04 15:12:02;;;;;;;12.63;3.07;;;;;;;;;;5103763;28;20518;-73
2023/03/04 15:15:00;;;;;;;5.47;2.30;;;;;;;;;;5117658;28;20470;-72
2023/03/04 15:17:54;;;;;;;7.57;2.23;;;;;;;;;;5117835;28;20446;-72
2023/03/04 15:20:38;;;;;;;6.40;2.00;;;;;;;;;;5117859;28;20478;-72
2023/03/04 15:23:24;;;;;;;10.60;2.67;;;;;;;;;;5111662;28;20581;-72
2023/03/04 15:26:02;;;;;;;6.23;2.23;;;;;;;;;;5115989;28;20883;-71
2023/03/04 15:28:36;;;;;;;12.53;2.40;;;;;;;;;;5109542;28;20536;-73
2023/03/04 15:31:29;;;;;;;6.73;2.17;;;;;;;;;;5099427;28;20463;-73
2023/03/04 15:33:59;;;;;;;6.27;1.60;;;;;;;;;;5112296;28;20451;-73
2023/03/04 15:36:28;;;;;;;5.13;1.80;;;;;;;;;;5118636;28;20447;-71
2023/03/04 15:39:07;;;;;;;10.77;3.43;;;;;;;;;;5113441;28;20527;-73
2023/03/04 15:42:03;;;;;;;9.67;1.93;;;;;;;;;;5118650;28;20462;-73
2023/03/04 15:44:40;;;;;;;15.20;2.27;;;;;;;;;;5118634;28;20451;-73
2023/03/04 15:53:00;;;;;;;16.53;2.00;;;;;;;;;;5115985;28;20930;-73
2023/03/04 15:55:29;;;;;;;9.17;1.63;;;;;;;;;;5116702;28;20462;-72
2023/03/04 15:58:01;;;;;;;4.70;1.27;;;;;;;;;;5106948;28;20553;-73
2023/03/04 16:00:36;;;;;;;6.00;2.13;;;;;;;;;;5099101;28;20479;-71
2023/03/04 16:03:24;;;;;;;14.83;2.70;;;;;;;;;;5118030;28;20882;-71
2023/03/04 16:06:04;;;;;;;7.30;1.90;;;;;;;;;;5099003;28;20469;-71
2023/03/04 16:08:53;;;;;;;7.80;2.70;;;;;;;;;;5100283;28;20455;-72